Terminal Aerodrome Forecast
Issued by NWS

Home | Current Version | Previous Version | Graphics & Text | Print | Product List | Glossary On
Versions: 1 2 3 4 5 6 7 8 9 10 11 12 13 14 15
000
FTUS43 KICT 141100
TAFSLN
TAF
KSLN 141120Z 1412/1512 16009KT P6SM SKC
     FM141900 17015G21KT P6SM BKN035
     FM150200 15011KT P6SM SCT040=

USA.gov is the U.S. government's official web portal to all federal, state and local government web resources and services.